sensor_id;sensor_type;location;lat;lon;timestamp;P1;durP1;ratioP1;P2;durP2;ratioP2
50773;SDS011;36745;48.544;8.918;2022-10-16T00:02:34;6.57;;;2.60;;
50773;SDS011;36745;48.544;8.918;2022-10-16T00:05:58;5.38;;;2.50;;
50773;SDS011;36745;48.544;8.918;2022-10-16T00:09:21;3.47;;;2.63;;
50773;SDS011;36745;48.544;8.918;2022-10-16T00:12:42;4.47;;;2.38;;
50773;SDS011;36745;48.544;8.918;2022-10-16T00:16:03;8.48;;;3.30;;
50773;SDS011;36745;48.544;8.918;2022-10-16T00:19:25;8.00;;;2.60;;
50773;SDS011;36745;48.544;8.918;2022-10-16T00:22:46;4.78;;;2.83;;
50773;SDS011;36745;48.544;8.918;2022-10-16T00:26:13;8.07;;;2.67;;
50773;SDS011;36745;48.544;8.918;2022-10-16T00:29:35;3.80;;;2.42;;
50773;SDS011;36745;48.544;8.918;2022-10-16T00:32:57;9.35;;;3.08;;
50773;SDS011;36745;48.544;8.918;2022-10-16T00:36:20;4.80;;;2.83;;
50773;SDS011;36745;48.544;8.918;2022-10-16T00:39:43;7.80;;;3.00;;
50773;SDS011;36745;48.544;8.918;2022-10-16T00:43:14;5.45;;;2.83;;
50773;SDS011;36745;48.544;8.918;2022-10-16T00:46:54;4.40;;;2.72;;
50773;SDS011;36745;48.544;8.918;2022-10-16T00:53:42;7.05;;;3.10;;
50773;SDS011;36745;48.544;8.918;2022-10-16T00:57:05;3.58;;;2.83;;
50773;SDS011;36745;48.544;8.918;2022-10-16T01:00:27;9.93;;;3.17;;
50773;SDS011;36745;48.544;8.918;2022-10-16T01:03:48;13.05;;;2.60;;
50773;SDS011;36745;48.544;8.918;2022-10-16T01:10:55;9.30;;;3.35;;
50773;SDS011;36745;48.544;8.918;2022-10-16T01:14:25;6.75;;;2.90;;
50773;SDS011;36745;48.544;8.918;2022-10-16T01:21:26;8.23;;;2.88;;
50773;SDS011;36745;48.544;8.918;2022-10-16T01:24:50;8.98;;;2.70;;
50773;SDS011;36745;48.544;8.918;2022-10-16T01:28:19;5.07;;;3.10;;
50773;SDS011;36745;48.544;8.918;2022-10-16T01:31:48;8.25;;;2.80;;
50773;SDS011;36745;48.544;8.918;2022-10-16T01:35:17;3.97;;;2.83;;
50773;SDS011;36745;48.544;8.918;2022-10-16T01:38:45;6.22;;;3.10;;
50773;SDS011;36745;48.544;8.918;2022-10-16T01:42:15;3.83;;;2.30;;
50773;SDS011;36745;48.544;8.918;2022-10-16T01:45:41;4.10;;;2.90;;
50773;SDS011;36745;48.544;8.918;2022-10-16T01:49:06;6.25;;;2.88;;
50773;SDS011;36745;48.544;8.918;2022-10-16T01:52:30;4.63;;;3.20;;
50773;SDS011;36745;48.544;8.918;2022-10-16T01:55:55;12.73;;;3.03;;
50773;SDS011;36745;48.544;8.918;2022-10-16T01:59:20;4.90;;;2.88;;
50773;SDS011;36745;48.544;8.918;2022-10-16T02:02:45;6.13;;;3.15;;
50773;SDS011;36745;48.544;8.918;2022-10-16T02:06:10;4.78;;;2.92;;
50773;SDS011;36745;48.544;8.918;2022-10-16T02:09:32;5.82;;;3.35;;
50773;SDS011;36745;48.544;8.918;2022-10-16T02:12:56;6.70;;;3.42;;
50773;SDS011;36745;48.544;8.918;2022-10-16T02:16:37;7.25;;;2.97;;
50773;SDS011;36745;48.544;8.918;2022-10-16T02:20:03;12.18;;;3.38;;
50773;SDS011;36745;48.544;8.918;2022-10-16T02:23:42;6.15;;;2.63;;
50773;SDS011;36745;48.544;8.918;2022-10-16T02:27:14;7.45;;;3.00;;
50773;SDS011;36745;48.544;8.918;2022-10-16T02:30:50;5.60;;;3.05;;
50773;SDS011;36745;48.544;8.918;2022-10-16T02:34:18;15.35;;;3.30;;
50773;SDS011;36745;48.544;8.918;2022-10-16T02:37:43;8.05;;;3.15;;
50773;SDS011;36745;48.544;8.918;2022-10-16T02:41:06;9.23;;;3.37;;
50773;SDS011;36745;48.544;8.918;2022-10-16T02:44:27;3.72;;;2.92;;
50773;SDS011;36745;48.544;8.918;2022-10-16T02:47:48;9.35;;;3.42;;
50773;SDS011;36745;48.544;8.918;2022-10-16T02:51:10;10.75;;;3.58;;
50773;SDS011;36745;48.544;8.918;2022-10-16T02:54:31;7.25;;;3.80;;
50773;SDS011;36745;48.544;8.918;2022-10-16T02:57:52;8.98;;;4.20;;
50773;SDS011;36745;48.544;8.918;2022-10-16T03:01:14;6.72;;;3.55;;
50773;SDS011;36745;48.544;8.918;2022-10-16T03:04:37;4.20;;;3.00;;
50773;SDS011;36745;48.544;8.918;2022-10-16T03:07:59;6.97;;;3.30;;
50773;SDS011;36745;48.544;8.918;2022-10-16T03:11:21;5.63;;;3.10;;
50773;SDS011;36745;48.544;8.918;2022-10-16T03:14:42;7.30;;;3.40;;
50773;SDS011;36745;48.544;8.918;2022-10-16T03:18:03;6.13;;;3.28;;
50773;SDS011;36745;48.544;8.918;2022-10-16T03:21:25;5.45;;;3.45;;
50773;SDS011;36745;48.544;8.918;2022-10-16T03:24:46;13.13;;;4.47;;
50773;SDS011;36745;48.544;8.918;2022-10-16T03:28:07;8.43;;;4.90;;
50773;SDS011;36745;48.544;8.918;2022-10-16T03:31:29;7.45;;;4.03;;
50773;SDS011;36745;48.544;8.918;2022-10-16T03:34:51;8.57;;;3.40;;
50773;SDS011;36745;48.544;8.918;2022-10-16T03:38:13;7.57;;;4.47;;
50773;SDS011;36745;48.544;8.918;2022-10-16T03:41:35;8.48;;;4.22;;
50773;SDS011;36745;48.544;8.918;2022-10-16T03:44:56;5.70;;;4.47;;
50773;SDS011;36745;48.544;8.918;2022-10-16T03:48:17;6.45;;;3.72;;
50773;SDS011;36745;48.544;8.918;2022-10-16T03:51:39;7.68;;;4.03;;
50773;SDS011;36745;48.544;8.918;2022-10-16T03:55:00;7.32;;;3.83;;
50773;SDS011;36745;48.544;8.918;2022-10-16T03:58:22;7.93;;;3.90;;
50773;SDS011;36745;48.544;8.918;2022-10-16T04:01:43;5.30;;;3.88;;
50773;SDS011;36745;48.544;8.918;2022-10-16T04:05:04;5.55;;;3.70;;
50773;SDS011;36745;48.544;8.918;2022-10-16T04:08:26;7.20;;;4.03;;
50773;SDS011;36745;48.544;8.918;2022-10-16T04:11:47;6.20;;;3.55;;
50773;SDS011;36745;48.544;8.918;2022-10-16T04:15:09;4.68;;;3.78;;
50773;SDS011;36745;48.544;8.918;2022-10-16T04:18:30;4.80;;;3.78;;
50773;SDS011;36745;48.544;8.918;2022-10-16T04:21:52;11.38;;;4.00;;
50773;SDS011;36745;48.544;8.918;2022-10-16T04:25:13;5.68;;;4.07;;
50773;SDS011;36745;48.544;8.918;2022-10-16T04:28:34;4.47;;;3.55;;
50773;SDS011;36745;48.544;8.918;2022-10-16T04:31:55;6.88;;;4.07;;
50773;SDS011;36745;48.544;8.918;2022-10-16T04:35:17;9.85;;;4.10;;
50773;SDS011;36745;48.544;8.918;2022-10-16T04:38:39;11.40;;;5.70;;
50773;SDS011;36745;48.544;8.918;2022-10-16T04:42:01;6.95;;;5.15;;
50773;SDS011;36745;48.544;8.918;2022-10-16T04:45:23;11.88;;;4.93;;
50773;SDS011;36745;48.544;8.918;2022-10-16T04:48:44;9.50;;;5.30;;
50773;SDS011;36745;48.544;8.918;2022-10-16T04:52:05;19.77;;;10.73;;
50773;SDS011;36745;48.544;8.918;2022-10-16T04:55:27;17.20;;;8.13;;
50773;SDS011;36745;48.544;8.918;2022-10-16T04:58:48;17.70;;;7.70;;
50773;SDS011;36745;48.544;8.918;2022-10-16T05:02:09;16.40;;;7.05;;
50773;SDS011;36745;48.544;8.918;2022-10-16T05:05:31;10.20;;;5.45;;
50773;SDS011;36745;48.544;8.918;2022-10-16T05:08:52;12.48;;;6.40;;
50773;SDS011;36745;48.544;8.918;2022-10-16T05:12:13;16.65;;;6.18;;
50773;SDS011;36745;48.544;8.918;2022-10-16T05:15:34;10.80;;;5.05;;
50773;SDS011;36745;48.544;8.918;2022-10-16T05:18:56;7.95;;;5.50;;
50773;SDS011;36745;48.544;8.918;2022-10-16T05:22:17;13.25;;;5.63;;
50773;SDS011;36745;48.544;8.918;2022-10-16T05:25:39;7.13;;;4.50;;
50773;SDS011;36745;48.544;8.918;2022-10-16T05:29:00;8.57;;;4.13;;
50773;SDS011;36745;48.544;8.918;2022-10-16T05:32:21;5.00;;;4.10;;
50773;SDS011;36745;48.544;8.918;2022-10-16T05:35:43;9.18;;;5.32;;
50773;SDS011;36745;48.544;8.918;2022-10-16T05:39:04;6.82;;;3.90;;
50773;SDS011;36745;48.544;8.918;2022-10-16T05:42:25;6.75;;;4.10;;
50773;SDS011;36745;48.544;8.918;2022-10-16T05:45:56;6.07;;;4.57;;
50773;SDS011;36745;48.544;8.918;2022-10-16T05:49:22;8.95;;;3.72;;
50773;SDS011;36745;48.544;8.918;2022-10-16T05:52:43;5.97;;;4.13;;
50773;SDS011;36745;48.544;8.918;2022-10-16T05:56:05;7.57;;;3.80;;
50773;SDS011;36745;48.544;8.918;2022-10-16T05:59:27;9.65;;;5.35;;
50773;SDS011;36745;48.544;8.918;2022-10-16T06:02:48;9.48;;;5.13;;
50773;SDS011;36745;48.544;8.918;2022-10-16T06:06:13;8.00;;;4.40;;
50773;SDS011;36745;48.544;8.918;2022-10-16T06:09:37;12.65;;;4.75;;
50773;SDS011;36745;48.544;8.918;2022-10-16T06:12:58;12.63;;;5.05;;
50773;SDS011;36745;48.544;8.918;2022-10-16T06:16:19;5.80;;;3.78;;
50773;SDS011;36745;48.544;8.918;2022-10-16T06:19:41;5.20;;;3.88;;
50773;SDS011;36745;48.544;8.918;2022-10-16T06:23:02;5.13;;;3.85;;
50773;SDS011;36745;48.544;8.918;2022-10-16T06:26:25;6.20;;;3.17;;
50773;SDS011;36745;48.544;8.918;2022-10-16T06:29:48;6.13;;;3.80;;
50773;SDS011;36745;48.544;8.918;2022-10-16T06:33:10;8.15;;;4.00;;
50773;SDS011;36745;48.544;8.918;2022-10-16T06:36:31;6.82;;;3.85;;
50773;SDS011;36745;48.544;8.918;2022-10-16T06:39:53;9.30;;;5.07;;
50773;SDS011;36745;48.544;8.918;2022-10-16T06:43:14;7.25;;;5.20;;
50773;SDS011;36745;48.544;8.918;2022-10-16T06:46:35;12.40;;;6.57;;
50773;SDS011;36745;48.544;8.918;2022-10-16T06:49:56;13.23;;;7.10;;
50773;SDS011;36745;48.544;8.918;2022-10-16T06:53:18;12.05;;;8.98;;
50773;SDS011;36745;48.544;8.918;2022-10-16T06:56:39;13.57;;;8.93;;
50773;SDS011;36745;48.544;8.918;2022-10-16T07:00:00;11.20;;;9.00;;
50773;SDS011;36745;48.544;8.918;2022-10-16T07:03:22;16.05;;;12.60;;
50773;SDS011;36745;48.544;8.918;2022-10-16T07:06:43;10.90;;;6.15;;
50773;SDS011;36745;48.544;8.918;2022-10-16T07:10:04;32.15;;;21.08;;
50773;SDS011;36745;48.544;8.918;2022-10-16T07:13:25;14.68;;;10.75;;
50773;SDS011;36745;48.544;8.918;2022-10-16T07:16:47;15.25;;;11.07;;
50773;SDS011;36745;48.544;8.918;2022-10-16T07:20:09;10.20;;;7.30;;
50773;SDS011;36745;48.544;8.918;2022-10-16T07:23:30;12.15;;;7.13;;
50773;SDS011;36745;48.544;8.918;2022-10-16T07:26:51;12.27;;;8.20;;
50773;SDS011;36745;48.544;8.918;2022-10-16T07:30:13;18.50;;;10.30;;
50773;SDS011;36745;48.544;8.918;2022-10-16T07:33:34;12.32;;;7.97;;
50773;SDS011;36745;48.544;8.918;2022-10-16T07:36:56;13.65;;;9.02;;
50773;SDS011;36745;48.544;8.918;2022-10-16T07:40:17;13.10;;;8.55;;
50773;SDS011;36745;48.544;8.918;2022-10-16T07:43:38;10.50;;;8.13;;
50773;SDS011;36745;48.544;8.918;2022-10-16T07:47:00;15.90;;;10.52;;
50773;SDS011;36745;48.544;8.918;2022-10-16T07:50:21;9.57;;;6.15;;
50773;SDS011;36745;48.544;8.918;2022-10-16T07:53:42;8.88;;;5.63;;
50773;SDS011;36745;48.544;8.918;2022-10-16T07:57:04;7.28;;;5.82;;
50773;SDS011;36745;48.544;8.918;2022-10-16T08:00:25;8.50;;;5.50;;
50773;SDS011;36745;48.544;8.918;2022-10-16T08:03:47;6.40;;;4.72;;
50773;SDS011;36745;48.544;8.918;2022-10-16T08:07:10;5.93;;;3.80;;
50773;SDS011;36745;48.544;8.918;2022-10-16T08:10:31;5.57;;;3.75;;
50773;SDS011;36745;48.544;8.918;2022-10-16T08:13:52;6.38;;;3.70;;
50773;SDS011;36745;48.544;8.918;2022-10-16T08:17:14;11.57;;;6.22;;
50773;SDS011;36745;48.544;8.918;2022-10-16T08:20:36;5.15;;;3.80;;
50773;SDS011;36745;48.544;8.918;2022-10-16T08:23:57;7.93;;;3.85;;
50773;SDS011;36745;48.544;8.918;2022-10-16T08:27:19;7.63;;;4.13;;
50773;SDS011;36745;48.544;8.918;2022-10-16T08:30:40;5.00;;;3.53;;
50773;SDS011;36745;48.544;8.918;2022-10-16T08:34:02;5.55;;;3.70;;
50773;SDS011;36745;48.544;8.918;2022-10-16T08:37:23;10.75;;;3.42;;
50773;SDS011;36745;48.544;8.918;2022-10-16T08:40:44;5.43;;;3.90;;
50773;SDS011;36745;48.544;8.918;2022-10-16T08:44:11;5.95;;;4.05;;
50773;SDS011;36745;48.544;8.918;2022-10-16T08:48:00;5.65;;;3.72;;
50773;SDS011;36745;48.544;8.918;2022-10-16T08:51:29;5.28;;;3.35;;
50773;SDS011;36745;48.544;8.918;2022-10-16T08:54:53;5.13;;;2.97;;
50773;SDS011;36745;48.544;8.918;2022-10-16T08:58:17;7.20;;;3.33;;
50773;SDS011;36745;48.544;8.918;2022-10-16T09:01:41;4.25;;;2.80;;
50773;SDS011;36745;48.544;8.918;2022-10-16T09:05:29;6.93;;;2.70;;
50773;SDS011;36745;48.544;8.918;2022-10-16T09:12:37;3.83;;;2.63;;
50773;SDS011;36745;48.544;8.918;2022-10-16T09:20:12;4.82;;;3.13;;
50773;SDS011;36745;48.544;8.918;2022-10-16T09:23:57;6.88;;;2.90;;
50773;SDS011;36745;48.544;8.918;2022-10-16T09:27:21;5.53;;;3.25;;
50773;SDS011;36745;48.544;8.918;2022-10-16T09:30:42;6.13;;;3.50;;
50773;SDS011;36745;48.544;8.918;2022-10-16T09:34:05;8.25;;;3.25;;
50773;SDS011;36745;48.544;8.918;2022-10-16T09:37:28;6.18;;;2.80;;
50773;SDS011;36745;48.544;8.918;2022-10-16T09:40:51;5.03;;;2.67;;
50773;SDS011;36745;48.544;8.918;2022-10-16T09:44:16;2.83;;;2.10;;
50773;SDS011;36745;48.544;8.918;2022-10-16T09:47:42;5.22;;;2.78;;
50773;SDS011;36745;48.544;8.918;2022-10-16T09:51:06;4.97;;;2.50;;
50773;SDS011;36745;48.544;8.918;2022-10-16T09:54:37;3.83;;;2.53;;
50773;SDS011;36745;48.544;8.918;2022-10-16T09:57:58;5.00;;;3.03;;
50773;SDS011;36745;48.544;8.918;2022-10-16T10:01:19;5.57;;;2.70;;
50773;SDS011;36745;48.544;8.918;2022-10-16T10:04:50;5.35;;;3.15;;
50773;SDS011;36745;48.544;8.918;2022-10-16T10:08:15;4.15;;;2.80;;
50773;SDS011;36745;48.544;8.918;2022-10-16T10:15:10;6.82;;;2.25;;
50773;SDS011;36745;48.544;8.918;2022-10-16T10:18:33;7.32;;;3.60;;
50773;SDS011;36745;48.544;8.918;2022-10-16T10:21:54;5.03;;;2.00;;
50773;SDS011;36745;48.544;8.918;2022-10-16T10:40:11;2.35;;;1.50;;
50773;SDS011;36745;48.544;8.918;2022-10-16T10:59:19;3.03;;;1.57;;
50773;SDS011;36745;48.544;8.918;2022-10-16T11:02:57;2.90;;;2.00;;
50773;SDS011;36745;48.544;8.918;2022-10-16T11:06:46;4.05;;;1.23;;
50773;SDS011;36745;48.544;8.918;2022-10-16T11:18:00;2.03;;;1.38;;
50773;SDS011;36745;48.544;8.918;2022-10-16T11:21:29;1.80;;;1.38;;
50773;SDS011;36745;48.544;8.918;2022-10-16T11:28:38;3.90;;;1.83;;
50773;SDS011;36745;48.544;8.918;2022-10-16T11:32:12;1.40;;;1.05;;
50773;SDS011;36745;48.544;8.918;2022-10-16T11:36:17;2.97;;;1.60;;
50773;SDS011;36745;48.544;8.918;2022-10-16T11:39:44;2.92;;;1.50;;
50773;SDS011;36745;48.544;8.918;2022-10-16T11:43:12;4.90;;;1.80;;
50773;SDS011;36745;48.544;8.918;2022-10-16T11:46:38;2.50;;;1.70;;
50773;SDS011;36745;48.544;8.918;2022-10-16T11:57:13;4.10;;;1.92;;
50773;SDS011;36745;48.544;8.918;2022-10-16T12:00:43;4.55;;;1.48;;
50773;SDS011;36745;48.544;8.918;2022-10-16T12:04:14;4.10;;;1.83;;
50773;SDS011;36745;48.544;8.918;2022-10-16T12:08:09;2.90;;;1.40;;
50773;SDS011;36745;48.544;8.918;2022-10-16T12:11:37;2.38;;;1.40;;
50773;SDS011;36745;48.544;8.918;2022-10-16T12:15:00;2.80;;;1.58;;
50773;SDS011;36745;48.544;8.918;2022-10-16T12:18:40;3.08;;;1.50;;
50773;SDS011;36745;48.544;8.918;2022-10-16T12:22:03;4.95;;;1.33;;
50773;SDS011;36745;48.544;8.918;2022-10-16T12:25:26;1.98;;;1.67;;
50773;SDS011;36745;48.544;8.918;2022-10-16T12:28:52;3.47;;;1.90;;
50773;SDS011;36745;48.544;8.918;2022-10-16T12:32:48;2.78;;;1.90;;
50773;SDS011;36745;48.544;8.918;2022-10-16T12:36:03;6.70;;;2.40;;
50773;SDS011;36745;48.544;8.918;2022-10-16T12:39:30;2.83;;;1.70;;
50773;SDS011;36745;48.544;8.918;2022-10-16T12:42:51;7.20;;;4.32;;
50773;SDS011;36745;48.544;8.918;2022-10-16T12:49:37;2.63;;;1.40;;
50773;SDS011;36745;48.544;8.918;2022-10-16T12:53:20;2.97;;;1.75;;
50773;SDS011;36745;48.544;8.918;2022-10-16T13:11:52;2.60;;;1.65;;
50773;SDS011;36745;48.544;8.918;2022-10-16T13:15:39;5.28;;;1.90;;
50773;SDS011;36745;48.544;8.918;2022-10-16T13:19:35;4.60;;;1.80;;
50773;SDS011;36745;48.544;8.918;2022-10-16T13:26:41;4.38;;;1.83;;
50773;SDS011;36745;48.544;8.918;2022-10-16T13:30:16;2.50;;;2.05;;
50773;SDS011;36745;48.544;8.918;2022-10-16T13:34:01;2.70;;;1.65;;
50773;SDS011;36745;48.544;8.918;2022-10-16T13:37:24;6.82;;;1.73;;
50773;SDS011;36745;48.544;8.918;2022-10-16T13:44:15;7.93;;;5.15;;
50773;SDS011;36745;48.544;8.918;2022-10-16T13:47:40;5.18;;;3.10;;
50773;SDS011;36745;48.544;8.918;2022-10-16T13:51:06;3.45;;;2.00;;
50773;SDS011;36745;48.544;8.918;2022-10-16T13:54:27;10.85;;;2.55;;
50773;SDS011;36745;48.544;8.918;2022-10-16T13:57:51;5.45;;;1.92;;
50773;SDS011;36745;48.544;8.918;2022-10-16T14:01:20;9.80;;;3.70;;
50773;SDS011;36745;48.544;8.918;2022-10-16T14:04:46;8.05;;;4.55;;
50773;SDS011;36745;48.544;8.918;2022-10-16T14:08:09;27.75;;;16.30;;
50773;SDS011;36745;48.544;8.918;2022-10-16T14:11:32;39.65;;;24.25;;
50773;SDS011;36745;48.544;8.918;2022-10-16T14:14:58;3.17;;;2.72;;
50773;SDS011;36745;48.544;8.918;2022-10-16T14:18:21;5.38;;;1.90;;
50773;SDS011;36745;48.544;8.918;2022-10-16T14:21:45;3.30;;;1.92;;
50773;SDS011;36745;48.544;8.918;2022-10-16T14:28:40;5.07;;;2.83;;
50773;SDS011;36745;48.544;8.918;2022-10-16T14:32:03;5.55;;;1.83;;
50773;SDS011;36745;48.544;8.918;2022-10-16T14:35:45;4.60;;;2.20;;
50773;SDS011;36745;48.544;8.918;2022-10-16T14:39:14;7.45;;;1.90;;
50773;SDS011;36745;48.544;8.918;2022-10-16T14:42:40;12.35;;;2.03;;
50773;SDS011;36745;48.544;8.918;2022-10-16T14:46:11;5.75;;;2.33;;
50773;SDS011;36745;48.544;8.918;2022-10-16T14:49:37;7.70;;;2.50;;
50773;SDS011;36745;48.544;8.918;2022-10-16T14:52:58;8.40;;;3.13;;
50773;SDS011;36745;48.544;8.918;2022-10-16T14:56:21;3.45;;;2.40;;
50773;SDS011;36745;48.544;8.918;2022-10-16T14:59:55;5.07;;;2.20;;
50773;SDS011;36745;48.544;8.918;2022-10-16T15:03:17;6.82;;;2.70;;
50773;SDS011;36745;48.544;8.918;2022-10-16T15:06:38;4.82;;;2.13;;
50773;SDS011;36745;48.544;8.918;2022-10-16T15:09:59;3.28;;;2.42;;
50773;SDS011;36745;48.544;8.918;2022-10-16T15:13:20;6.35;;;3.20;;
50773;SDS011;36745;48.544;8.918;2022-10-16T15:16:42;6.25;;;2.70;;
50773;SDS011;36745;48.544;8.918;2022-10-16T15:20:03;2.95;;;2.25;;
50773;SDS011;36745;48.544;8.918;2022-10-16T15:23:24;3.38;;;2.22;;
50773;SDS011;36745;48.544;8.918;2022-10-16T15:26:46;5.80;;;2.13;;
50773;SDS011;36745;48.544;8.918;2022-10-16T15:30:07;4.05;;;1.83;;
50773;SDS011;36745;48.544;8.918;2022-10-16T15:33:32;4.95;;;2.20;;
50773;SDS011;36745;48.544;8.918;2022-10-16T15:36:55;4.15;;;2.30;;
50773;SDS011;36745;48.544;8.918;2022-10-16T15:40:21;3.65;;;2.50;;
50773;SDS011;36745;48.544;8.918;2022-10-16T15:43:50;7.90;;;2.65;;
50773;SDS011;36745;48.544;8.918;2022-10-16T15:47:12;10.43;;;2.55;;
50773;SDS011;36745;48.544;8.918;2022-10-16T15:50:33;4.57;;;2.15;;
50773;SDS011;36745;48.544;8.918;2022-10-16T15:53:57;7.38;;;2.30;;
50773;SDS011;36745;48.544;8.918;2022-10-16T15:57:22;4.68;;;2.00;;
50773;SDS011;36745;48.544;8.918;2022-10-16T16:00:44;4.85;;;2.30;;
50773;SDS011;36745;48.544;8.918;2022-10-16T16:04:05;10.70;;;4.32;;
50773;SDS011;36745;48.544;8.918;2022-10-16T16:07:27;4.38;;;3.50;;
50773;SDS011;36745;48.544;8.918;2022-10-16T16:14:39;9.30;;;4.82;;
50773;SDS011;36745;48.544;8.918;2022-10-16T16:18:00;10.07;;;5.88;;
50773;SDS011;36745;48.544;8.918;2022-10-16T16:21:23;7.35;;;2.65;;
50773;SDS011;36745;48.544;8.918;2022-10-16T16:24:44;4.53;;;2.58;;
50773;SDS011;36745;48.544;8.918;2022-10-16T16:28:05;5.97;;;2.75;;
50773;SDS011;36745;48.544;8.918;2022-10-16T16:31:28;9.25;;;2.92;;
50773;SDS011;36745;48.544;8.918;2022-10-16T16:34:50;3.10;;;2.70;;
50773;SDS011;36745;48.544;8.918;2022-10-16T16:38:18;8.63;;;3.42;;
50773;SDS011;36745;48.544;8.918;2022-10-16T16:41:39;6.20;;;3.20;;
50773;SDS011;36745;48.544;8.918;2022-10-16T16:45:03;6.40;;;3.50;;
50773;SDS011;36745;48.544;8.918;2022-10-16T16:48:25;6.70;;;3.53;;
50773;SDS011;36745;48.544;8.918;2022-10-16T16:51:46;12.38;;;3.88;;
50773;SDS011;36745;48.544;8.918;2022-10-16T16:55:08;10.07;;;3.85;;
50773;SDS011;36745;48.544;8.918;2022-10-16T16:58:29;19.02;;;5.20;;
50773;SDS011;36745;48.544;8.918;2022-10-16T17:01:51;9.27;;;4.18;;
50773;SDS011;36745;48.544;8.918;2022-10-16T17:05:12;8.50;;;4.00;;
50773;SDS011;36745;48.544;8.918;2022-10-16T17:08:40;11.63;;;6.22;;
50773;SDS011;36745;48.544;8.918;2022-10-16T17:12:01;13.07;;;7.78;;
50773;SDS011;36745;48.544;8.918;2022-10-16T17:15:23;17.88;;;10.52;;
50773;SDS011;36745;48.544;8.918;2022-10-16T17:18:44;16.52;;;12.60;;
50773;SDS011;36745;48.544;8.918;2022-10-16T17:22:05;11.73;;;9.25;;
50773;SDS011;36745;48.544;8.918;2022-10-16T17:25:26;13.63;;;8.50;;
50773;SDS011;36745;48.544;8.918;2022-10-16T17:28:51;11.05;;;4.93;;
50773;SDS011;36745;48.544;8.918;2022-10-16T17:32:14;7.00;;;4.43;;
50773;SDS011;36745;48.544;8.918;2022-10-16T17:35:36;11.15;;;4.90;;
50773;SDS011;36745;48.544;8.918;2022-10-16T17:39:07;7.20;;;5.13;;
50773;SDS011;36745;48.544;8.918;2022-10-16T17:42:29;7.35;;;4.40;;
50773;SDS011;36745;48.544;8.918;2022-10-16T17:45:50;17.77;;;6.75;;
50773;SDS011;36745;48.544;8.918;2022-10-16T17:49:11;19.60;;;8.48;;
50773;SDS011;36745;48.544;8.918;2022-10-16T17:52:32;15.93;;;6.82;;
50773;SDS011;36745;48.544;8.918;2022-10-16T17:55:54;14.13;;;6.43;;
50773;SDS011;36745;48.544;8.918;2022-10-16T17:59:19;17.42;;;8.52;;
50773;SDS011;36745;48.544;8.918;2022-10-16T18:06:03;14.95;;;6.45;;
50773;SDS011;36745;48.544;8.918;2022-10-16T18:09:25;18.85;;;6.63;;
50773;SDS011;36745;48.544;8.918;2022-10-16T18:12:54;14.23;;;7.15;;
50773;SDS011;36745;48.544;8.918;2022-10-16T18:16:16;11.35;;;5.57;;
50773;SDS011;36745;48.544;8.918;2022-10-16T18:19:37;17.00;;;6.60;;
50773;SDS011;36745;48.544;8.918;2022-10-16T18:22:59;12.20;;;5.70;;
50773;SDS011;36745;48.544;8.918;2022-10-16T18:26:20;11.43;;;5.85;;
50773;SDS011;36745;48.544;8.918;2022-10-16T18:29:42;14.10;;;6.20;;
50773;SDS011;36745;48.544;8.918;2022-10-16T18:33:03;8.40;;;5.88;;
50773;SDS011;36745;48.544;8.918;2022-10-16T18:36:26;17.73;;;7.13;;
50773;SDS011;36745;48.544;8.918;2022-10-16T18:39:52;9.57;;;6.03;;
50773;SDS011;36745;48.544;8.918;2022-10-16T18:43:14;9.70;;;6.18;;
50773;SDS011;36745;48.544;8.918;2022-10-16T18:46:35;15.02;;;6.85;;
50773;SDS011;36745;48.544;8.918;2022-10-16T18:49:57;13.52;;;5.80;;
50773;SDS011;36745;48.544;8.918;2022-10-16T18:53:18;18.98;;;6.97;;
50773;SDS011;36745;48.544;8.918;2022-10-16T18:56:40;16.10;;;5.70;;
50773;SDS011;36745;48.544;8.918;2022-10-16T19:00:02;13.95;;;6.60;;
50773;SDS011;36745;48.544;8.918;2022-10-16T19:03:23;12.65;;;6.03;;
50773;SDS011;36745;48.544;8.918;2022-10-16T19:06:45;12.13;;;6.10;;
50773;SDS011;36745;48.544;8.918;2022-10-16T19:10:09;12.57;;;6.00;;
50773;SDS011;36745;48.544;8.918;2022-10-16T19:13:33;15.75;;;5.65;;
50773;SDS011;36745;48.544;8.918;2022-10-16T19:16:55;8.43;;;5.15;;
50773;SDS011;36745;48.544;8.918;2022-10-16T19:20:16;12.02;;;5.85;;
50773;SDS011;36745;48.544;8.918;2022-10-16T19:23:38;12.35;;;5.75;;
50773;SDS011;36745;48.544;8.918;2022-10-16T19:26:59;12.35;;;5.80;;
50773;SDS011;36745;48.544;8.918;2022-10-16T19:30:21;10.05;;;6.15;;
50773;SDS011;36745;48.544;8.918;2022-10-16T19:33:44;14.27;;;6.13;;
50773;SDS011;36745;48.544;8.918;2022-10-16T19:37:06;11.40;;;5.57;;
50773;SDS011;36745;48.544;8.918;2022-10-16T19:40:30;9.45;;;5.32;;
50773;SDS011;36745;48.544;8.918;2022-10-16T19:43:51;12.00;;;5.40;;
50773;SDS011;36745;48.544;8.918;2022-10-16T19:47:13;11.40;;;6.20;;
50773;SDS011;36745;48.544;8.918;2022-10-16T19:50:35;9.50;;;5.72;;
50773;SDS011;36745;48.544;8.918;2022-10-16T19:53:57;10.65;;;6.10;;
50773;SDS011;36745;48.544;8.918;2022-10-16T19:57:19;10.93;;;6.32;;
50773;SDS011;36745;48.544;8.918;2022-10-16T20:00:41;12.60;;;6.35;;
50773;SDS011;36745;48.544;8.918;2022-10-16T20:04:02;16.52;;;5.85;;
50773;SDS011;36745;48.544;8.918;2022-10-16T20:07:26;12.48;;;6.47;;
50773;SDS011;36745;48.544;8.918;2022-10-16T20:10:51;13.75;;;5.88;;
50773;SDS011;36745;48.544;8.918;2022-10-16T20:14:14;11.68;;;6.63;;
50773;SDS011;36745;48.544;8.918;2022-10-16T20:17:35;14.48;;;7.40;;
50773;SDS011;36745;48.544;8.918;2022-10-16T20:20:56;15.57;;;6.97;;
50773;SDS011;36745;48.544;8.918;2022-10-16T20:24:18;14.30;;;7.22;;
50773;SDS011;36745;48.544;8.918;2022-10-16T20:27:39;10.02;;;7.43;;
50773;SDS011;36745;48.544;8.918;2022-10-16T20:31:04;12.60;;;6.93;;
50773;SDS011;36745;48.544;8.918;2022-10-16T20:34:27;11.23;;;6.80;;
50773;SDS011;36745;48.544;8.918;2022-10-16T20:37:48;11.10;;;5.95;;
50773;SDS011;36745;48.544;8.918;2022-10-16T20:41:13;14.73;;;6.47;;
50773;SDS011;36745;48.544;8.918;2022-10-16T20:44:35;10.00;;;6.43;;
50773;SDS011;36745;48.544;8.918;2022-10-16T20:47:56;10.43;;;6.25;;
50773;SDS011;36745;48.544;8.918;2022-10-16T20:51:28;12.93;;;6.75;;
50773;SDS011;36745;48.544;8.918;2022-10-16T20:54:56;9.48;;;6.45;;
50773;SDS011;36745;48.544;8.918;2022-10-16T20:58:17;10.52;;;6.10;;
50773;SDS011;36745;48.544;8.918;2022-10-16T21:01:39;12.45;;;6.57;;
50773;SDS011;36745;48.544;8.918;2022-10-16T21:05:01;12.73;;;5.90;;
50773;SDS011;36745;48.544;8.918;2022-10-16T21:08:22;11.02;;;6.38;;
50773;SDS011;36745;48.544;8.918;2022-10-16T21:11:43;8.93;;;5.85;;
50773;SDS011;36745;48.544;8.918;2022-10-16T21:15:05;13.65;;;6.47;;
50773;SDS011;36745;48.544;8.918;2022-10-16T21:18:26;8.82;;;6.50;;
50773;SDS011;36745;48.544;8.918;2022-10-16T21:21:48;11.02;;;5.93;;
50773;SDS011;36745;48.544;8.918;2022-10-16T21:25:11;10.80;;;5.95;;
50773;SDS011;36745;48.544;8.918;2022-10-16T21:28:32;13.27;;;5.97;;
50773;SDS011;36745;48.544;8.918;2022-10-16T21:31:53;12.23;;;6.20;;
50773;SDS011;36745;48.544;8.918;2022-10-16T21:35:15;12.38;;;6.70;;
50773;SDS011;36745;48.544;8.918;2022-10-16T21:38:36;9.18;;;5.90;;
50773;SDS011;36745;48.544;8.918;2022-10-16T21:41:57;12.15;;;6.30;;
50773;SDS011;36745;48.544;8.918;2022-10-16T21:45:18;8.85;;;6.05;;
50773;SDS011;36745;48.544;8.918;2022-10-16T21:48:40;9.82;;;6.35;;
50773;SDS011;36745;48.544;8.918;2022-10-16T21:52:02;11.18;;;6.47;;
50773;SDS011;36745;48.544;8.918;2022-10-16T21:55:24;8.30;;;5.80;;
50773;SDS011;36745;48.544;8.918;2022-10-16T21:58:45;9.25;;;5.78;;
50773;SDS011;36745;48.544;8.918;2022-10-16T22:02:07;11.80;;;5.97;;
50773;SDS011;36745;48.544;8.918;2022-10-16T22:05:28;15.18;;;5.63;;
50773;SDS011;36745;48.544;8.918;2022-10-16T22:08:50;11.70;;;6.63;;
50773;SDS011;36745;48.544;8.918;2022-10-16T22:12:12;26.60;;;9.85;;